Time;durP1;ratioP1;P1;durP2;ratioP2;P2;SDS_P1;SDS_P2;PMS_P1;PMS_P2;Temp;Humidity;BMP_temperature;BMP_pressure;BME280_temperature;BME280_humidity;BME280_pressure;Samples;Min_cycle;Max_cycle;Signal;HPM_P1;HPM_P2
2023/04/01 00:00:34;;;;;;;21.85;6.55;;;;;;;;;;5073835;28;20052;-72
2023/04/01 00:03:01;;;;;;;21.52;6.63;;;;;;;;;;5073964;28;20074;-73
2023/04/01 00:05:28;;;;;;;25.37;6.50;;;;;;;;;;5073742;28;20051;-73
2023/04/01 00:07:54;;;;;;;21.48;6.20;;;;;;;;;;5055987;28;20281;-73
2023/04/01 00:10:21;;;;;;;22.40;6.10;;;;;;;;;;5073679;28;20070;-72
2023/04/01 00:12:47;;;;;;;22.00;5.97;;;;;;;;;;5073823;28;20049;-72
2023/04/01 00:15:14;;;;;;;17.92;5.90;;;;;;;;;;5073719;28;20059;-73
2023/04/01 00:17:40;;;;;;;17.48;6.07;;;;;;;;;;5073644;28;20044;-73
2023/04/01 00:20:07;;;;;;;24.52;9.32;;;;;;;;;;5073514;28;20781;-72
2023/04/01 00:22:34;;;;;;;23.52;9.43;;;;;;;;;;5073527;28;20080;-73
2023/04/01 00:25:01;;;;;;;21.65;7.07;;;;;;;;;;5073573;28;20135;-73
2023/04/01 00:27:27;;;;;;;21.95;6.40;;;;;;;;;;5073200;28;20133;-72
2023/04/01 00:29:53;;;;;;;19.83;7.32;;;;;;;;;;5072662;28;20079;-72
2023/04/01 00:32:20;;;;;;;16.05;5.78;;;;;;;;;;5073237;28;20059;-72
2023/04/01 00:34:49;;;;;;;16.98;4.90;;;;;;;;;;5055444;28;20052;-72
2023/04/01 00:37:15;;;;;;;20.33;6.10;;;;;;;;;;5073197;28;20052;-72
2023/04/01 00:39:42;;;;;;;21.33;7.20;;;;;;;;;;5072967;28;20503;-72
2023/04/01 00:42:08;;;;;;;27.92;9.18;;;;;;;;;;5055220;28;20135;-72
2023/04/01 00:44:36;;;;;;;23.67;9.45;;;;;;;;;;5073192;28;20145;-72
2023/04/01 00:47:03;;;;;;;29.20;12.52;;;;;;;;;;5073172;28;20055;-72
2023/04/01 00:49:32;;;;;;;33.88;12.95;;;;;;;;;;5058738;28;20048;-72
2023/04/01 00:51:59;;;;;;;27.13;10.35;;;;;;;;;;5073110;28;20055;-72
2023/04/01 00:54:26;;;;;;;33.97;14.70;;;;;;;;;;5072838;28;20132;-72
2023/04/01 00:57:00;;;;;;;28.92;10.50;;;;;;;;;;5055255;28;20488;-72
2023/04/01 00:59:27;;;;;;;25.10;9.43;;;;;;;;;;5073056;28;20080;-72
2023/04/01 01:01:54;;;;;;;24.98;7.85;;;;;;;;;;5072620;28;20412;-72
2023/04/01 01:04:25;;;;;;;30.45;11.00;;;;;;;;;;5072589;28;20063;-72
2023/04/01 01:06:54;;;;;;;25.98;8.82;;;;;;;;;;5072687;28;20063;-72
2023/04/01 01:09:25;;;;;;;26.13;7.20;;;;;;;;;;5072716;28;20106;-72
2023/04/01 01:12:01;;;;;;;25.63;7.95;;;;;;;;;;5072607;28;20049;-72
2023/04/01 01:14:44;;;;;;;20.70;6.97;;;;;;;;;;5072660;28;20070;-72
2023/04/01 01:17:20;;;;;;;21.08;6.80;;;;;;;;;;5054779;28;20484;-72
2023/04/01 01:19:48;;;;;;;19.50;6.97;;;;;;;;;;5072541;28;20105;-72
2023/04/01 01:22:14;;;;;;;;;;;;;;;;;;5072809;28;20048;-72
2023/04/01 01:24:44;;;;;;;24.52;8.40;;;;;;;;;;5065348;28;19938;-72
2023/04/01 01:27:16;;;;;;;29.80;7.88;;;;;;;;;;5071916;28;20492;-72
2023/04/01 01:29:49;;;;;;;21.30;7.60;;;;;;;;;;5072349;28;20053;-72
2023/04/01 01:32:21;;;;;;;19.95;8.85;;;;;;;;;;5072316;28;20143;-72
2023/04/01 01:35:11;;;;;;;23.42;8.02;;;;;;;;;;5072153;28;20121;-72
2023/04/01 01:37:40;;;;;;;27.52;8.52;;;;;;;;;;5071985;28;20492;-72
2023/04/01 01:40:07;;;;;;;26.45;9.13;;;;;;;;;;5071871;28;20049;-72
2023/04/01 01:42:36;;;;;;;17.48;6.35;;;;;;;;;;5071297;28;20056;-72
2023/04/01 01:45:04;;;;;;;20.92;6.93;;;;;;;;;;5071943;28;20056;-72
2023/04/01 01:47:31;;;;;;;20.50;6.35;;;;;;;;;;5054355;28;20054;-72
2023/04/01 01:49:57;;;;;;;23.00;6.45;;;;;;;;;;5072043;28;20044;-72
2023/04/01 01:52:24;;;;;;;17.90;6.35;;;;;;;;;;5071776;28;20059;-72
2023/04/01 01:54:54;;;;;;;19.58;5.43;;;;;;;;;;5071591;28;20511;-72
2023/04/01 01:57:39;;;;;;;17.48;5.57;;;;;;;;;;5071788;28;20139;-72
2023/04/01 02:00:12;;;;;;;18.20;5.40;;;;;;;;;;5071907;28;20044;-72
2023/04/01 02:02:43;;;;;;;19.75;5.57;;;;;;;;;;5071723;28;20098;-72
2023/04/01 02:05:11;;;;;;;20.40;5.65;;;;;;;;;;5071531;28;20044;-72
2023/04/01 02:07:39;;;;;;;16.63;5.75;;;;;;;;;;5072124;28;20048;-72
2023/04/01 02:10:06;;;;;;;22.98;6.03;;;;;;;;;;5071589;28;20131;-72
2023/04/01 02:15:56;;;;;;;22.38;6.63;;;;;;;;;;5071499;28;20024;-72
2023/04/01 02:18:22;;;;;;;17.25;6.70;;;;;;;;;;5071769;28;20381;-72
2023/04/01 02:20:49;;;;;;;19.10;7.38;;;;;;;;;;5071374;28;20051;-72
2023/04/01 02:23:16;;;;;;;17.63;7.15;;;;;;;;;;5071569;28;20052;-72
2023/04/01 02:25:43;;;;;;;19.85;7.63;;;;;;;;;;5071289;28;20488;-72
2023/04/01 02:28:10;;;;;;;23.93;8.03;;;;;;;;;;5071631;28;20059;-72
2023/04/01 02:30:38;;;;;;;20.73;7.95;;;;;;;;;;5071663;28;20304;-72
2023/04/01 02:33:04;;;;;;;;;;;;;;;;;;5071765;28;20128;-72
2023/04/01 02:35:32;;;;;;;16.83;7.25;;;;;;;;;;5071630;28;20433;-72
2023/04/01 02:37:59;;;;;;;17.20;6.93;;;;;;;;;;5071375;28;20041;-72
2023/04/01 02:40:25;;;;;;;21.05;8.00;;;;;;;;;;5071335;28;20461;-72
2023/04/01 02:42:52;;;;;;;20.35;7.78;;;;;;;;;;5071145;28;20408;-73
2023/04/01 02:45:18;;;;;;;24.88;8.90;;;;;;;;;;5071411;28;20048;-73
2023/04/01 02:47:45;;;;;;;21.65;7.55;;;;;;;;;;5071148;28;20127;-72
2023/04/01 02:50:11;;;;;;;21.55;7.72;;;;;;;;;;5071196;28;20084;-72
2023/04/01 02:52:38;;;;;;;20.40;7.25;;;;;;;;;;5072783;28;20182;-72
2023/04/01 02:55:05;;;;;;;20.40;7.63;;;;;;;;;;5075344;28;20087;-72
2023/04/01 02:57:31;;;;;;;23.30;7.57;;;;;;;;;;5074863;28;20062;-72
2023/04/01 02:59:58;;;;;;;21.58;7.30;;;;;;;;;;5075159;28;20052;-72
2023/04/01 03:02:25;;;;;;;17.42;6.63;;;;;;;;;;5074932;28;20518;-72
2023/04/01 03:04:51;;;;;;;17.05;7.10;;;;;;;;;;5074782;28;20060;-72
2023/04/01 03:07:18;;;;;;;20.75;7.13;;;;;;;;;;5075066;28;20048;-72
2023/04/01 03:09:44;;;;;;;18.15;6.78;;;;;;;;;;5056963;28;20053;-72
2023/04/01 03:12:10;;;;;;;24.15;8.05;;;;;;;;;;5074923;28;20045;-72
2023/04/01 03:14:37;;;;;;;23.98;7.93;;;;;;;;;;5075019;28;20048;-72
2023/04/01 03:17:03;;;;;;;14.13;7.93;;;;;;;;;;5074590;28;20132;-72
2023/04/01 03:19:30;;;;;;;25.45;8.13;;;;;;;;;;5074642;28;20060;-72
2023/04/01 03:21:56;;;;;;;24.52;8.82;;;;;;;;;;5056655;28;20048;-72
2023/04/01 03:24:22;;;;;;;24.83;8.63;;;;;;;;;;5074455;28;20059;-72
2023/04/01 03:26:49;;;;;;;25.13;8.88;;;;;;;;;;5074516;28;20048;-72
2023/04/01 03:29:16;;;;;;;23.50;8.18;;;;;;;;;;5074734;28;20076;-72
2023/04/01 03:31:42;;;;;;;20.38;8.77;;;;;;;;;;5074392;28;20127;-72
2023/04/01 03:34:09;;;;;;;16.45;7.78;;;;;;;;;;5074338;28;20048;-71
2023/04/01 03:36:35;;;;;;;16.23;8.05;;;;;;;;;;5074378;28;20403;-71
2023/04/01 03:39:03;;;;;;;18.02;7.32;;;;;;;;;;5074197;28;20064;-72
2023/04/01 03:41:30;;;;;;;18.92;6.10;;;;;;;;;;5074183;28;20098;-71
2023/04/01 03:43:57;;;;;;;19.33;6.65;;;;;;;;;;5074136;28;20500;-71
2023/04/01 03:46:23;;;;;;;15.52;6.53;;;;;;;;;;5074148;28;20044;-72
2023/04/01 03:48:50;;;;;;;17.73;6.68;;;;;;;;;;5074330;28;20041;-72
2023/04/01 03:51:16;;;;;;;25.83;7.57;;;;;;;;;;5073987;28;20514;-71
2023/04/01 03:53:42;;;;;;;13.63;6.03;;;;;;;;;;5073923;28;20095;-72
2023/04/01 03:56:09;;;;;;;18.08;7.20;;;;;;;;;;5074267;28;20052;-72
2023/04/01 03:58:36;;;;;;;20.08;7.03;;;;;;;;;;5073674;28;20148;-71
2023/04/01 04:01:02;;;;;;;20.73;6.87;;;;;;;;;;5056167;28;20058;-71
2023/04/01 04:03:29;;;;;;;17.23;6.38;;;;;;;;;;5073118;28;20476;-72
2023/04/01 04:05:56;;;;;;;14.15;6.38;;;;;;;;;;5073469;28;20557;-71
2023/04/01 04:08:22;;;;;;;14.43;5.43;;;;;;;;;;5073937;28;20052;-71
2023/04/01 04:10:54;;;;;;;17.52;5.68;;;;;;;;;;5073981;28;20141;-71
2023/04/01 04:13:21;;;;;;;16.10;5.30;;;;;;;;;;5073948;28;20139;-72
2023/04/01 04:15:47;;;;;;;14.88;4.93;;;;;;;;;;5073740;28;20431;-71
2023/04/01 04:18:13;;;;;;;16.77;4.50;;;;;;;;;;5073664;28;20048;-71
2023/04/01 04:20:45;;;;;;;15.63;4.97;;;;;;;;;;5073471;28;20046;-71
2023/04/01 04:23:11;;;;;;;16.10;5.07;;;;;;;;;;5073474;28;20052;-72
2023/04/01 04:25:38;;;;;;;15.45;5.25;;;;;;;;;;5073258;28;20044;-72
2023/04/01 04:28:04;;;;;;;12.85;4.47;;;;;;;;;;5073309;28;20040;-72
2023/04/01 04:30:30;;;;;;;11.60;4.70;;;;;;;;;;5073232;28;20045;-72
2023/04/01 04:32:57;;;;;;;11.13;4.68;;;;;;;;;;5073474;28;20041;-72
2023/04/01 04:35:23;;;;;;;15.68;5.40;;;;;;;;;;5073148;28;20049;-72
2023/04/01 04:37:49;;;;;;;13.73;5.32;;;;;;;;;;5073343;28;20056;-72
2023/04/01 04:40:16;;;;;;;13.50;4.82;;;;;;;;;;5073428;28;20049;-72
2023/04/01 04:42:42;;;;;;;14.50;5.05;;;;;;;;;;5073141;28;20136;-72
2023/04/01 04:45:09;;;;;;;14.63;5.43;;;;;;;;;;5073054;28;20055;-72
2023/04/01 04:47:35;;;;;;;16.00;5.07;;;;;;;;;;5072829;28;20492;-72
2023/04/01 04:50:02;;;;;;;18.40;5.85;;;;;;;;;;5072707;28;20045;-72
2023/04/01 04:52:28;;;;;;;19.23;6.43;;;;;;;;;;5072895;28;20049;-72
2023/04/01 04:54:55;;;;;;;20.20;7.13;;;;;;;;;;5072951;28;20400;-72
2023/04/01 04:57:21;;;;;;;23.65;7.32;;;;;;;;;;5072718;28;20060;-72
2023/04/01 04:59:47;;;;;;;16.17;7.60;;;;;;;;;;5072600;28;20056;-73
2023/04/01 05:02:14;;;;;;;18.85;7.40;;;;;;;;;;5054842;28;20062;-73
2023/04/01 05:04:40;;;;;;;20.15;8.30;;;;;;;;;;5073051;28;20049;-73
2023/04/01 05:07:07;;;;;;;25.52;8.15;;;;;;;;;;5054624;28;20083;-72
2023/04/01 05:09:33;;;;;;;18.67;7.68;;;;;;;;;;5072847;28;20048;-72
2023/04/01 05:12:00;;;;;;;21.30;8.63;;;;;;;;;;5072667;28;20412;-72
2023/04/01 05:14:26;;;;;;;19.75;7.53;;;;;;;;;;5072739;28;20150;-72
2023/04/01 05:16:54;;;;;;;16.30;6.72;;;;;;;;;;5072066;28;20075;-72
2023/04/01 05:19:20;;;;;;;;;;;;;;;;;;5055008;28;20052;-72
2023/04/01 05:21:47;;;;;;;15.57;6.18;;;;;;;;;;5072209;28;19920;-72
2023/04/01 05:24:13;;;;;;;16.67;6.18;;;;;;;;;;5072681;28;20230;-72
2023/04/01 05:26:39;;;;;;;14.18;5.53;;;;;;;;;;5054389;28;20049;-72
2023/04/01 05:29:06;;;;;;;14.02;5.93;;;;;;;;;;5072397;28;20489;-72
2023/04/01 05:31:32;;;;;;;11.35;5.47;;;;;;;;;;5072082;28;20059;-72
2023/04/01 05:33:58;;;;;;;12.38;5.90;;;;;;;;;;5072221;28;20053;-72
2023/04/01 05:36:25;;;;;;;14.65;6.47;;;;;;;;;;5072258;28;20044;-72
2023/04/01 05:38:54;;;;;;;15.30;6.60;;;;;;;;;;5072303;28;20049;-71
2023/04/01 05:41:20;;;;;;;16.50;6.22;;;;;;;;;;5072181;28;20049;-72
2023/04/01 05:43:47;;;;;;;20.30;6.57;;;;;;;;;;5071996;28;20055;-72
2023/04/01 05:46:13;;;;;;;21.67;7.45;;;;;;;;;;5087201;28;20055;-72
2023/04/01 05:48:40;;;;;;;22.60;7.57;;;;;;;;;;5071827;28;20049;-72
2023/04/01 05:51:06;;;;;;;23.27;7.53;;;;;;;;;;5071753;28;20056;-72
2023/04/01 05:53:32;;;;;;;23.13;7.28;;;;;;;;;;5071924;28;20048;-71
2023/04/01 05:56:03;;;;;;;19.92;7.35;;;;;;;;;;5071863;28;20084;-71
2023/04/01 05:58:29;;;;;;;22.02;7.75;;;;;;;;;;5071683;28;20169;-71
2023/04/01 06:01:05;;;;;;;26.85;7.32;;;;;;;;;;5071937;28;20131;-71
2023/04/01 06:03:39;;;;;;;20.60;7.53;;;;;;;;;;5071651;28;20483;-71
2023/04/01 06:06:11;;;;;;;21.98;7.20;;;;;;;;;;5071909;28;20381;-73
2023/04/01 06:08:37;;;;;;;24.63;7.47;;;;;;;;;;5071711;28;20123;-71
2023/04/01 06:11:04;;;;;;;19.85;6.18;;;;;;;;;;5071633;28;20403;-72
2023/04/01 06:13:47;;;;;;;21.30;6.45;;;;;;;;;;5053988;28;20049;-71
2023/04/01 06:16:25;;;;;;;26.27;7.63;;;;;;;;;;5071728;28;20521;-71
2023/04/01 06:19:01;;;;;;;23.25;7.32;;;;;;;;;;5071468;28;20045;-72
2023/04/01 06:21:27;;;;;;;24.00;6.90;;;;;;;;;;5071463;28;20049;-72
2023/04/01 06:24:12;;;;;;;20.88;7.25;;;;;;;;;;5071386;28;20583;-71
2023/04/01 06:26:43;;;;;;;25.10;8.13;;;;;;;;;;5071610;28;20052;-71
2023/04/01 06:29:21;;;;;;;22.40;6.55;;;;;;;;;;5075617;28;20131;-72
2023/04/01 06:32:14;;;;;;;19.38;7.25;;;;;;;;;;5057821;28;20135;-72
2023/04/01 06:35:00;;;;;;;22.23;7.32;;;;;;;;;;5071932;28;20071;-72
2023/04/01 06:37:36;;;;;;;25.35;8.05;;;;;;;;;;5075593;28;20139;-71
2023/04/01 06:40:03;;;;;;;28.37;8.60;;;;;;;;;;5075398;28;20136;-72
2023/04/01 06:42:41;;;;;;;23.85;8.32;;;;;;;;;;5075344;28;20564;-72
2023/04/01 06:45:14;;;;;;;21.88;6.82;;;;;;;;;;5075935;28;20467;-72
2023/04/01 06:47:40;;;;;;;23.95;7.47;;;;;;;;;;5075390;28;20048;-72
2023/04/01 06:50:24;;;;;;;17.40;6.13;;;;;;;;;;5057996;28;20072;-72
2023/04/01 06:53:10;;;;;;;21.17;7.95;;;;;;;;;;5075362;28;20044;-72
2023/04/01 06:55:55;;;;;;;22.83;6.65;;;;;;;;;;5057520;28;20131;-72
2023/04/01 06:58:23;;;;;;;22.45;7.30;;;;;;;;;;5074830;28;20060;-72
2023/04/01 07:01:13;;;;;;;18.15;6.50;;;;;;;;;;5074980;28;20477;-72
2023/04/01 07:03:44;;;;;;;22.63;6.72;;;;;;;;;;5064301;28;20083;-72
2023/04/01 07:06:20;;;;;;;20.52;6.80;;;;;;;;;;5057393;28;20044;-72
2023/04/01 07:08:48;;;;;;;19.10;6.03;;;;;;;;;;5074923;28;20098;-71
2023/04/01 07:11:26;;;;;;;22.10;7.85;;;;;;;;;;5074821;28;20054;-72
2023/04/01 07:13:59;;;;;;;21.15;6.78;;;;;;;;;;5074939;28;20059;-72
2023/04/01 07:16:50;;;;;;;24.63;7.55;;;;;;;;;;5075022;28;20079;-72
2023/04/01 07:19:29;;;;;;;24.45;7.20;;;;;;;;;;5074624;28;20108;-71
2023/04/01 07:22:00;;;;;;;21.63;7.80;;;;;;;;;;5074430;28;20044;-72
2023/04/01 07:24:33;;;;;;;25.23;7.85;;;;;;;;;;5074556;28;20483;-72
2023/04/01 07:27:00;;;;;;;23.13;6.50;;;;;;;;;;5074637;28;20439;-72
2023/04/01 07:29:26;;;;;;;18.75;7.53;;;;;;;;;;5074735;28;20060;-72
2023/04/01 07:31:59;;;;;;;19.63;6.65;;;;;;;;;;5074727;28;20052;-72
2023/04/01 07:34:25;;;;;;;17.77;7.75;;;;;;;;;;5074587;28;20044;-72
2023/04/01 07:37:12;;;;;;;17.35;5.78;;;;;;;;;;5074594;28;20123;-72
2023/04/01 07:39:56;;;;;;;21.52;6.63;;;;;;;;;;5074157;28;20048;-72
2023/04/01 07:42:42;;;;;;;14.93;5.75;;;;;;;;;;5074509;28;20059;-71
2023/04/01 07:45:08;;;;;;;15.55;4.97;;;;;;;;;;5074495;28;20415;-72
2023/04/01 07:47:53;;;;;;;12.75;4.82;;;;;;;;;;5074247;28;20045;-72
2023/04/01 07:50:28;;;;;;;15.40;5.30;;;;;;;;;;5074108;28;20571;-72
2023/04/01 07:53:13;;;;;;;14.82;5.45;;;;;;;;;;5073973;28;20450;-72
2023/04/01 07:55:44;;;;;;;12.30;5.93;;;;;;;;;;5074069;28;20397;-72
2023/04/01 07:58:30;;;;;;;15.35;5.60;;;;;;;;;;5073947;28;20087;-72
2023/04/01 08:00:56;;;;;;;13.65;6.40;;;;;;;;;;5073871;28;20084;-72
2023/04/01 08:03:31;;;;;;;11.35;5.53;;;;;;;;;;5074076;28;20052;-72
2023/04/01 08:06:00;;;;;;;14.18;6.72;;;;;;;;;;5056008;28;20054;-72
2023/04/01 08:08:41;;;;;;;14.50;5.40;;;;;;;;;;5073896;28;20048;-72
2023/04/01 08:11:10;;;;;;;17.63;5.65;;;;;;;;;;5073919;28;20411;-72
2023/04/01 08:13:52;;;;;;;12.25;5.72;;;;;;;;;;5073558;28;20416;-72
2023/04/01 08:16:28;;;;;;;14.02;4.75;;;;;;;;;;5073590;28;20044;-72
2023/04/01 08:19:03;;;;;;;11.18;4.80;;;;;;;;;;5055645;28;20508;-72
2023/04/01 08:21:42;;;;;;;10.88;4.95;;;;;;;;;;5073686;28;20147;-72
2023/04/01 08:24:27;;;;;;;10.13;4.20;;;;;;;;;;5073424;28;20052;-72
2023/04/01 08:27:16;;;;;;;9.70;3.90;;;;;;;;;;5073210;28;20037;-72
2023/04/01 08:30:01;;;;;;;10.63;4.50;;;;;;;;;;5073566;28;20472;-72
2023/04/01 08:32:38;;;;;;;11.00;4.18;;;;;;;;;;5073155;28;20139;-72
2023/04/01 08:35:37;;;;;;;11.15;4.57;;;;;;;;;;5073218;28;20468;-72
2023/04/01 08:38:39;;;;;;;9.02;4.63;;;;;;;;;;5029045;28;20106;-72
2023/04/01 08:41:06;;;;;;;9.52;4.78;;;;;;;;;;4975405;28;20050;-72
2023/04/01 08:43:45;;;;;;;6.57;3.90;;;;;;;;;;5056954;28;20041;-73
2023/04/01 08:46:15;;;;;;;7.65;4.45;;;;;;;;;;5073294;28;20048;-72
2023/04/01 08:48:51;;;;;;;9.85;3.80;;;;;;;;;;5072816;28;20049;-72
2023/04/01 08:51:18;;;;;;;10.13;3.40;;;;;;;;;;5072700;28;20131;-72
2023/04/01 08:54:02;;;;;;;4.97;3.00;;;;;;;;;;5072808;28;20308;-72
2023/04/01 08:56:35;;;;;;;5.93;2.65;;;;;;;;;;5055185;28;20045;-72
2023/04/01 08:59:07;;;;;;;5.75;3.55;;;;;;;;;;5072612;28;20052;-72
2023/04/01 09:01:37;;;;;;;5.18;2.45;;;;;;;;;;5072957;28;20060;-72
2023/04/01 09:04:18;;;;;;;4.80;2.33;;;;;;;;;;5072673;28;20066;-72
2023/04/01 09:06:56;;;;;;;7.53;2.30;;;;;;;;;;5072837;28;20102;-71
2023/04/01 09:09:32;;;;;;;5.07;2.00;;;;;;;;;;5072602;28;20136;-71
2023/04/01 09:11:58;;;;;;;3.20;1.63;;;;;;;;;;5054623;28;20044;-71
2023/04/01 09:14:31;;;;;;;3.92;1.50;;;;;;;;;;5072478;28;20404;-72
2023/04/01 09:17:16;;;;;;;2.83;1.25;;;;;;;;;;5072397;28;20051;-72
2023/04/01 09:19:57;;;;;;;2.22;1.30;;;;;;;;;;5072491;28;20055;-72
2023/04/01 09:22:38;;;;;;;6.63;1.30;;;;;;;;;;5072517;28;20052;-72
2023/04/01 09:25:05;;;;;;;1.85;0.73;;;;;;;;;;5072194;28;20044;-72
2023/04/01 09:27:31;;;;;;;3.22;1.00;;;;;;;;;;5072231;28;20132;-72
2023/04/01 09:30:00;;;;;;;2.22;1.08;;;;;;;;;;5072150;28;20048;-72
2023/04/01 09:32:50;;;;;;;2.00;0.55;;;;;;;;;;5072134;28;20484;-72
2023/04/01 09:35:20;;;;;;;0.55;0.30;;;;;;;;;;5072139;28;20052;-72
2023/04/01 09:38:05;;;;;;;0.68;0.30;;;;;;;;;;5071947;28;20131;-72
2023/04/01 09:40:53;;;;;;;0.77;0.30;;;;;;;;;;5072191;28;20044;-72
2023/04/01 09:43:23;;;;;;;1.20;0.20;;;;;;;;;;5072073;28;20427;-72
2023/04/01 09:45:49;;;;;;;0.28;0.10;;;;;;;;;;5054409;28;20052;-72
2023/04/01 09:48:34;;;;;;;0.32;0.25;;;;;;;;;;5071755;28;20045;-72
2023/04/01 09:51:03;;;;;;;0.90;0.10;;;;;;;;;;5072188;28;20397;-72
2023/04/01 09:53:50;;;;;;;0.20;0.20;;;;;;;;;;5071903;28;20049;-72
2023/04/01 09:56:32;;;;;;;0.50;0.23;;;;;;;;;;5071352;28;20059;-72
2023/04/01 09:59:18;;;;;;;0.93;0.15;;;;;;;;;;5071492;28;20331;-72
2023/04/01 10:01:44;;;;;;;0.40;0.10;;;;;;;;;;5070955;28;20135;-72
2023/04/01 10:04:29;;;;;;;0.28;0.15;;;;;;;;;;5071759;28;20455;-72
2023/04/01 10:07:12;;;;;;;0.43;0.10;;;;;;;;;;5071888;28;20075;-72
2023/04/01 10:09:57;;;;;;;0.22;0.10;;;;;;;;;;5071807;28;20094;-72
2023/04/01 10:12:42;;;;;;;0.50;0.20;;;;;;;;;;5071701;28;20070;-72
2023/04/01 10:15:21;;;;;;;0.77;0.30;;;;;;;;;;5071495;28;20492;-72
2023/04/01 10:17:58;;;;;;;0.95;0.60;;;;;;;;;;5071760;28;20044;-72
2023/04/01 10:20:43;;;;;;;0.80;0.50;;;;;;;;;;5071487;28;20055;-72
2023/04/01 10:23:09;;;;;;;0.47;0.20;;;;;;;;;;5071971;28;20045;-72
2023/04/01 10:25:36;;;;;;;0.70;0.10;;;;;;;;;;5071701;28;20040;-72
2023/04/01 10:28:11;;;;;;;0.57;0.10;;;;;;;;;;5071562;28;20516;-72
2023/04/01 10:30:41;;;;;;;0.52;0.10;;;;;;;;;;5071657;28;20041;-72
2023/04/01 10:33:26;;;;;;;0.65;0.20;;;;;;;;;;5071449;28;20056;-72
2023/04/01 10:36:08;;;;;;;0.10;0.10;;;;;;;;;;5071567;28;20507;-72
2023/04/01 10:39:10;;;;;;;0.20;0.10;;;;;;;;;;5071368;28;20098;-72
2023/04/01 10:41:42;;;;;;;1.35;0.10;;;;;;;;;;4989849;28;20482;-72
2023/04/01 10:44:17;;;;;;;0.70;0.10;;;;;;;;;;5057810;28;20522;-72
2023/04/01 10:47:03;;;;;;;0.60;0.20;;;;;;;;;;5071542;28;20048;-72
2023/04/01 10:49:48;;;;;;;0.10;0.10;;;;;;;;;;5053502;28;20407;-72
2023/04/01 10:52:44;;;;;;;0.10;0.00;;;;;;;;;;5071303;28;20057;-72
2023/04/01 10:55:23;;;;;;;0.10;0.10;;;;;;;;;;5053868;28;20160;-72
2023/04/01 10:57:50;;;;;;;0.55;0.10;;;;;;;;;;5071190;28;20067;-72
2023/04/01 11:00:28;;;;;;;0.10;0.10;;;;;;;;;;5071409;28;20412;-72
2023/04/01 11:03:20;;;;;;;0.35;0.20;;;;;;;;;;5071391;28;20365;-72
2023/04/01 11:05:50;;;;;;;0.17;0.17;;;;;;;;;;5071430;28;20067;-72
2023/04/01 11:08:16;;;;;;;0.38;0.17;;;;;;;;;;5053083;28;20045;-72
2023/04/01 11:10:55;;;;;;;0.43;0.10;;;;;;;;;;5071146;28;20052;-72
2023/04/01 11:13:25;;;;;;;0.10;0.10;;;;;;;;;;5071883;28;20054;-72
2023/04/01 11:16:03;;;;;;;1.02;0.20;;;;;;;;;;5074981;28;20044;-72
2023/04/01 11:18:29;;;;;;;0.43;0.00;;;;;;;;;;5074940;28;20110;-72
2023/04/01 11:21:06;;;;;;;0.17;0.10;;;;;;;;;;5074702;28;20095;-72
2023/04/01 11:23:33;;;;;;;0.40;0.25;;;;;;;;;;5074817;28;20076;-72
2023/04/01 11:26:05;;;;;;;0.40;0.40;;;;;;;;;;5074770;28;20054;-72
2023/04/01 11:28:42;;;;;;;0.60;0.45;;;;;;;;;;5074379;28;20084;-72
2023/04/01 11:31:14;;;;;;;0.47;0.43;;;;;;;;;;5074533;28;20058;-72
2023/04/01 11:33:49;;;;;;;0.80;0.80;;;;;;;;;;5074849;28;20053;-72
2023/04/01 11:36:16;;;;;;;1.40;1.30;;;;;;;;;;5074520;28;20044;-72
2023/04/01 11:38:57;;;;;;;2.30;1.35;;;;;;;;;;5074343;28;20563;-72
2023/04/01 11:41:38;;;;;;;1.60;1.50;;;;;;;;;;5074638;28;20041;-72
2023/04/01 11:44:23;;;;;;;2.30;1.52;;;;;;;;;;5074577;28;20110;-72
2023/04/01 11:47:09;;;;;;;1.63;1.52;;;;;;;;;;5074471;28;20490;-72
2023/04/01 11:49:49;;;;;;;1.77;1.67;;;;;;;;;;5074004;28;20049;-72
2023/04/01 11:52:25;;;;;;;2.75;2.00;;;;;;;;;;5074288;28;20052;-72
2023/04/01 11:55:04;;;;;;;1.90;1.80;;;;;;;;;;5074199;28;20041;-72
2023/04/01 11:57:40;;;;;;;1.60;1.50;;;;;;;;;;5074064;28;20048;-72
2023/04/01 12:00:25;;;;;;;1.83;1.70;;;;;;;;;;5073933;28;20575;-72
2023/04/01 12:03:10;;;;;;;1.40;1.40;;;;;;;;;;5074227;28;20045;-72
2023/04/01 12:05:48;;;;;;;1.20;1.20;;;;;;;;;;5074062;28;20048;-72
2023/04/01 12:08:41;;;;;;;1.88;1.77;;;;;;;;;;5073867;28;20423;-72
2023/04/01 12:11:08;;;;;;;2.20;2.10;;;;;;;;;;5043233;28;20047;-72
2023/04/01 12:13:34;;;;;;;3.08;2.70;;;;;;;;;;5073648;28;20045;-72
2023/04/01 12:16:18;;;;;;;2.70;2.50;;;;;;;;;;5073861;28;20127;-72
2023/04/01 12:19:14;;;;;;;3.47;3.17;;;;;;;;;;5074121;28;20461;-72
2023/04/01 12:21:52;;;;;;;4.55;2.60;;;;;;;;;;5001945;28;20061;-72
2023/04/01 12:24:30;;;;;;;2.40;2.13;;;;;;;;;;5073734;28;20135;-73
2023/04/01 12:26:57;;;;;;;1.52;1.42;;;;;;;;;;5073363;28;20389;-72
2023/04/01 12:29:50;;;;;;;3.95;1.80;;;;;;;;;;5073616;28;20047;-72
2023/04/01 12:32:22;;;;;;;2.28;2.17;;;;;;;;;;5042972;28;20052;-72
2023/04/01 12:35:03;;;;;;;3.20;3.00;;;;;;;;;;5073565;28;20047;-72
2023/04/01 12:37:48;;;;;;;5.18;4.68;;;;;;;;;;5073390;28;20051;-72
2023/04/01 12:40:18;;;;;;;6.40;5.80;;;;;;;;;;5073182;28;20062;-73
2023/04/01 12:43:00;;;;;;;5.40;5.00;;;;;;;;;;5073280;28;20075;-72
2023/04/01 12:45:30;;;;;;;6.18;5.68;;;;;;;;;;5073098;28;20131;-72
2023/04/01 12:48:03;;;;;;;9.15;8.32;;;;;;;;;;5072843;28;20083;-72
2023/04/01 12:50:37;;;;;;;9.40;8.60;;;;;;;;;;5072989;28;20041;-72
2023/04/01 12:53:22;;;;;;;7.45;6.75;;;;;;;;;;5072984;28;20083;-72
2023/04/01 12:55:52;;;;;;;7.28;6.57;;;;;;;;;;5072891;28;20047;-72
2023/04/01 12:58:20;;;;;;;7.22;6.28;;;;;;;;;;5072590;28;20140;-72
2023/04/01 13:00:56;;;;;;;6.18;5.68;;;;;;;;;;5072996;28;20135;-72
2023/04/01 13:03:25;;;;;;;6.28;5.78;;;;;;;;;;5072729;28;20040;-72
2023/04/01 13:05:54;;;;;;;6.70;6.20;;;;;;;;;;5072619;28;20121;-72
2023/04/01 13:08:30;;;;;;;7.43;6.80;;;;;;;;;;5072787;28;20086;-72
2023/04/01 13:11:02;;;;;;;8.52;7.72;;;;;;;;;;5072845;28;20041;-72
2023/04/01 13:13:40;;;;;;;8.70;7.80;;;;;;;;;;5072528;28;20052;-72
2023/04/01 13:16:14;;;;;;;8.50;7.70;;;;;;;;;;5072443;28;20401;-72
2023/04/01 13:18:49;;;;;;;8.60;7.82;;;;;;;;;;5069150;28;20049;-72
2023/04/01 13:21:26;;;;;;;9.15;8.25;;;;;;;;;;5062969;28;20048;-73
2023/04/01 13:23:52;;;;;;;8.77;7.97;;;;;;;;;;5072882;28;20059;-72
2023/04/01 13:26:25;;;;;;;8.70;7.90;;;;;;;;;;5072258;28;20044;-72
2023/04/01 13:29:07;;;;;;;10.55;8.95;;;;;;;;;;5072341;28;20530;-72
2023/04/01 13:31:45;;;;;;;9.85;8.90;;;;;;;;;;5072446;28;20131;-72
2023/04/01 13:34:27;;;;;;;9.57;8.45;;;;;;;;;;5054525;28;20052;-72
2023/04/01 13:37:04;;;;;;;9.00;8.10;;;;;;;;;;5072439;28;20048;-72
2023/04/01 13:39:43;;;;;;;7.67;6.87;;;;;;;;;;5054575;28;20139;-73
2023/04/01 13:42:27;;;;;;;6.10;5.60;;;;;;;;;;5072019;28;20287;-72
2023/04/01 13:44:56;;;;;;;5.13;4.72;;;;;;;;;;5054416;28;20102;-72
2023/04/01 13:47:41;;;;;;;5.13;4.70;;;;;;;;;;5071837;28;20571;-72
2023/04/01 13:50:17;;;;;;;5.22;4.82;;;;;;;;;;5071995;28;20076;-72
2023/04/01 13:52:51;;;;;;;5.35;4.85;;;;;;;;;;5072153;28;20049;-72
2023/04/01 13:55:28;;;;;;;5.20;4.70;;;;;;;;;;5072156;28;20054;-72
2023/04/01 13:58:10;;;;;;;5.10;4.70;;;;;;;;;;5071566;28;20143;-72
2023/04/01 14:00:36;;;;;;;7.20;5.55;;;;;;;;;;5071725;28;20675;-72
2023/04/01 14:03:15;;;;;;;5.78;5.20;;;;;;;;;;5071977;28;20114;-72
2023/04/01 14:05:53;;;;;;;5.25;4.75;;;;;;;;;;5071737;28;20049;-72
2023/04/01 14:08:27;;;;;;;6.57;6.00;;;;;;;;;;5054020;28;20463;-72
2023/04/01 14:10:59;;;;;;;5.28;4.75;;;;;;;;;;5071699;28;20072;-72
2023/04/01 14:13:44;;;;;;;5.03;4.22;;;;;;;;;;5071661;28;20099;-72
2023/04/01 14:16:17;;;;;;;5.07;4.68;;;;;;;;;;5071533;28;20048;-72
2023/04/01 14:19:06;;;;;;;5.18;4.78;;;;;;;;;;5071504;28;20048;-72
2023/04/01 14:21:52;;;;;;;5.15;4.60;;;;;;;;;;5060937;28;20407;-72
2023/04/01 14:24:38;;;;;;;4.68;4.10;;;;;;;;;;5071823;28;20049;-72
2023/04/01 14:27:10;;;;;;;4.00;3.60;;;;;;;;;;5071410;28;20442;-72
2023/04/01 14:29:39;;;;;;;6.53;3.60;;;;;;;;;;5071689;28;20056;-72
2023/04/01 14:32:34;;;;;;;4.35;3.58;;;;;;;;;;5071547;28;20059;-72
2023/04/01 14:35:13;;;;;;;3.20;2.90;;;;;;;;;;5071500;28;20048;-72
2023/04/01 14:37:42;;;;;;;3.55;3.25;;;;;;;;;;5071266;28;20045;-72
2023/04/01 14:40:15;;;;;;;3.72;3.13;;;;;;;;;;5071387;28;20052;-72
2023/04/01 14:42:49;;;;;;;3.70;3.40;;;;;;;;;;5071588;28;20060;-72
2023/04/01 14:45:34;;;;;;;3.90;3.50;;;;;;;;;;5071700;28;20480;-72
2023/04/01 14:48:04;;;;;;;4.18;2.90;;;;;;;;;;5071701;28;20462;-73
2023/04/01 14:50:42;;;;;;;3.60;3.30;;;;;;;;;;5075502;28;20056;-72
2023/04/01 14:53:13;;;;;;;3.70;3.40;;;;;;;;;;5075352;28;20127;-72
2023/04/01 14:55:42;;;;;;;3.38;3.08;;;;;;;;;;5075424;28;20044;-72
2023/04/01 14:58:16;;;;;;;2.90;2.70;;;;;;;;;;5058823;28;20057;-72
2023/04/01 15:00:49;;;;;;;2.47;2.28;;;;;;;;;;5074975;28;20048;-72
2023/04/01 15:03:22;;;;;;;3.08;2.40;;;;;;;;;;5075277;28;20488;-72
2023/04/01 15:05:51;;;;;;;2.65;2.30;;;;;;;;;;5056762;28;20094;-72
2023/04/01 15:08:24;;;;;;;2.65;2.42;;;;;;;;;;5074822;28;20136;-73
2023/04/01 15:11:21;;;;;;;2.40;2.20;;;;;;;;;;5074830;28;20052;-73
2023/04/01 15:13:59;;;;;;;2.80;2.60;;;;;;;;;;5058682;28;20110;-72